createdAt,value
2019-02-19T00:01:01.337Z,36.85
2019-02-19T00:02:06.984Z,37.55
2019-02-19T00:03:11.085Z,40.25
2019-02-19T00:04:15.274Z,46.35
2019-02-19T00:05:19.284Z,36.50
2019-02-19T00:06:23.538Z,41.05
2019-02-19T00:07:27.713Z,37.70
2019-02-19T00:08:31.954Z,30.75
2019-02-19T00:09:35.902Z,33.18
2019-02-19T00:10:39.906Z,29.50
2019-02-19T00:11:44.083Z,27.75
2019-02-19T00:12:48.343Z,27.32
2019-02-19T00:13:52.521Z,22.98
2019-02-19T00:14:56.563Z,24.45
2019-02-19T00:16:00.500Z,22.35
2019-02-19T00:17:04.431Z,24.07
2019-02-19T00:18:08.433Z,21.95
2019-02-19T00:19:12.366Z,22.05
2019-02-19T00:20:16.312Z,18.75
2019-02-19T00:21:20.315Z,21.85
2019-02-19T00:22:24.318Z,22.32
2019-02-19T00:23:28.504Z,22.00
2019-02-19T00:24:32.498Z,22.52
2019-02-19T00:25:36.760Z,21.27
2019-02-19T00:26:42.196Z,25.25
2019-02-19T00:27:46.606Z,22.90
2019-02-19T00:28:51.196Z,23.45
2019-02-19T00:29:55.483Z,24.05
2019-02-19T00:30:59.613Z,25.20
2019-02-19T00:32:03.838Z,24.15
2019-02-19T00:33:08.334Z,21.82
2019-02-19T00:34:13.043Z,22.45
2019-02-19T00:35:17.559Z,20.10
2019-02-19T00:36:21.557Z,18.60
2019-02-19T00:37:25.620Z,17.12
2019-02-19T00:38:29.573Z,19.40
2019-02-19T00:39:33.972Z,21.82
2019-02-19T00:40:38.073Z,16.00
2019-02-19T00:41:42.075Z,18.60
2019-02-19T00:42:46.062Z,17.92
2019-02-19T00:43:50.276Z,18.15
2019-02-19T00:44:54.229Z,18.57
2019-02-19T00:45:58.152Z,18.02
2019-02-19T00:47:02.494Z,16.10
2019-02-19T00:48:06.737Z,19.77
2019-02-19T00:49:10.665Z,19.23
2019-02-19T00:50:14.902Z,19.62
2019-02-19T00:51:19.107Z,16.32
2019-02-19T00:52:23.407Z,19.57
2019-02-19T00:53:27.407Z,26.00
2019-02-19T00:54:31.986Z,22.50
2019-02-19T00:55:36.234Z,18.52
2019-02-19T00:56:40.423Z,21.50
2019-02-19T00:57:44.678Z,16.77
2019-02-19T00:58:48.606Z,18.62
2019-02-19T00:59:52.615Z,20.15
2019-02-19T01:00:56.564Z,19.30
2019-02-19T01:02:00.731Z,21.45
2019-02-19T01:03:05.040Z,20.40
2019-02-19T01:04:09.287Z,17.40
2019-02-19T01:05:13.486Z,24.63
2019-02-19T01:06:17.506Z,19.55
2019-02-19T01:07:21.766Z,17.98
2019-02-19T01:08:25.798Z,20.37
2019-02-19T01:09:29.969Z,20.68
2019-02-19T01:10:33.970Z,22.27
2019-02-19T01:11:38.159Z,17.65
2019-02-19T01:12:42.330Z,25.68
2019-02-19T01:13:46.589Z,22.17
2019-02-19T01:14:50.835Z,24.30
2019-02-19T01:15:55.545Z,21.02
2019-02-19T01:16:59.838Z,22.02
2019-02-19T01:18:03.838Z,23.30
2019-02-19T01:19:08.150Z,24.60
2019-02-19T01:20:12.164Z,25.65
2019-02-19T01:21:16.178Z,28.05
2019-02-19T01:22:20.838Z,22.65
2019-02-19T01:23:24.855Z,25.92
2019-02-19T01:24:29.103Z,25.70
2019-02-19T01:25:33.034Z,23.10
2019-02-19T01:26:37.430Z,23.15
2019-02-19T01:27:41.367Z,22.62
2019-02-19T01:28:45.896Z,21.07
2019-02-19T01:29:50.411Z,22.70
2019-02-19T01:30:54.477Z,24.32
2019-02-19T01:31:58.523Z,19.95
2019-02-19T01:33:02.506Z,20.68
2019-02-19T01:34:06.649Z,18.75
2019-02-19T01:35:11.028Z,18.23
2019-02-19T01:36:14.958Z,19.70
2019-02-19T01:37:19.029Z,19.73
2019-02-19T01:38:23.087Z,19.92
2019-02-19T01:39:26.904Z,22.70
2019-02-19T01:40:30.839Z,20.40
2019-02-19T01:41:34.857Z,20.00
2019-02-19T01:42:38.962Z,26.77
2019-02-19T01:43:43.123Z,22.45
2019-02-19T01:44:47.408Z,24.60
2019-02-19T01:45:51.366Z,24.25
2019-02-19T01:46:55.313Z,25.92
2019-02-19T01:47:59.239Z,24.57
2019-02-19T01:49:03.550Z,25.50
2019-02-19T01:50:08.325Z,23.40
2019-02-19T01:51:12.566Z,20.60
2019-02-19T01:52:16.826Z,24.45
2019-02-19T01:53:20.997Z,23.83
2019-02-19T01:54:25.506Z,25.00
2019-02-19T01:55:29.607Z,22.30
2019-02-19T01:56:33.870Z,25.80
2019-02-19T01:57:37.814Z,26.10
2019-02-19T01:58:41.986Z,26.33
2019-02-19T01:59:45.843Z,29.60
2019-02-19T02:00:49.844Z,26.73
2019-02-19T02:01:53.771Z,26.80
2019-02-19T02:02:57.651Z,35.95
2019-02-19T02:04:01.749Z,33.02
2019-02-19T02:05:06.045Z,36.70
2019-02-19T02:06:10.047Z,85.57
2019-02-19T02:07:14.067Z,62.80
2019-02-19T02:08:17.998Z,68.17
2019-02-19T02:09:21.999Z,54.70
2019-02-19T02:10:25.924Z,79.90
2019-02-19T02:11:30.057Z,69.27
2019-02-19T02:12:34.004Z,61.28
2019-02-19T02:13:38.350Z,50.40
2019-02-19T02:14:42.273Z,43.45
2019-02-19T02:15:46.445Z,39.80
2019-02-19T02:16:50.455Z,38.58
2019-02-19T02:17:54.395Z,40.15
2019-02-19T02:18:58.571Z,33.23
2019-02-19T02:20:02.570Z,29.95
2019-02-19T02:21:06.831Z,31.50
2019-02-19T02:22:10.819Z,31.10
2019-02-19T02:23:15.004Z,28.55
2019-02-19T02:24:19.002Z,30.50
2019-02-19T02:25:23.640Z,39.00
2019-02-19T02:26:27.823Z,50.55
2019-02-19T02:27:31.680Z,32.85
2019-02-19T02:28:35.802Z,33.28
2019-02-19T02:29:39.895Z,27.42
2019-02-19T02:30:43.846Z,30.68
2019-02-19T02:31:47.991Z,27.17
2019-02-19T02:32:52.024Z,26.33
2019-02-19T02:33:55.879Z,30.10
2019-02-19T02:34:59.747Z,29.07
2019-02-19T02:36:03.822Z,25.23
2019-02-19T02:37:07.935Z,27.17
2019-02-19T02:38:12.305Z,29.15
2019-02-19T02:39:16.237Z,27.05
2019-02-19T02:40:20.508Z,30.70
2019-02-19T02:41:24.514Z,24.60
2019-02-19T02:42:28.949Z,30.20
2019-02-19T02:43:33.129Z,26.48
2019-02-19T02:44:37.121Z,32.33
2019-02-19T02:45:41.331Z,28.00
2019-02-19T02:46:45.541Z,26.35
2019-02-19T02:47:49.541Z,27.65
2019-02-19T02:48:53.671Z,26.10
2019-02-19T02:49:57.857Z,29.12
2019-02-19T02:51:01.784Z,28.50
2019-02-19T02:52:05.707Z,25.95
2019-02-19T02:53:09.644Z,25.48
2019-02-19T02:54:13.827Z,29.70
2019-02-19T02:55:17.759Z,25.70
2019-02-19T02:56:21.763Z,28.52
2019-02-19T02:57:26.273Z,29.52
2019-02-19T02:58:30.382Z,24.15
2019-02-19T02:59:34.310Z,31.23
2019-02-19T03:00:38.812Z,25.48
2019-02-19T03:01:43.241Z,28.35
2019-02-19T03:02:47.116Z,31.15
2019-02-19T03:03:51.565Z,29.10
2019-02-19T03:04:55.673Z,27.55
2019-02-19T03:06:11.682Z,30.05
2019-02-19T03:07:29.323Z,26.15
2019-02-19T03:08:33.512Z,33.70
2019-02-19T03:09:37.440Z,22.93
2019-02-19T03:10:41.622Z,24.05
2019-02-19T03:11:46.329Z,25.82
2019-02-19T03:12:50.546Z,24.80
2019-02-19T03:13:54.488Z,28.47
2019-02-19T03:14:58.912Z,27.60
2019-02-19T03:16:03.167Z,29.52
2019-02-19T03:17:07.022Z,31.68
2019-02-19T03:18:10.884Z,25.37
2019-02-19T03:19:15.155Z,23.87
2019-02-19T03:20:19.406Z,23.45
2019-02-19T03:21:23.402Z,25.48
2019-02-19T03:22:27.350Z,29.10
2019-02-19T03:23:31.280Z,27.90
2019-02-19T03:24:35.885Z,27.93
2019-02-19T03:25:39.817Z,30.20
2019-02-19T03:26:44.296Z,32.35
2019-02-19T03:27:48.230Z,26.62
2019-02-19T03:28:52.169Z,36.40
2019-02-19T03:29:56.710Z,28.98
2019-02-19T03:31:00.916Z,29.12
2019-02-19T03:32:04.962Z,31.70
2019-02-19T03:33:09.431Z,30.68
2019-02-19T03:34:13.297Z,28.17
2019-02-19T03:35:17.368Z,28.02
2019-02-19T03:36:21.303Z,28.23
2019-02-19T03:37:25.941Z,26.02
2019-02-19T03:38:29.976Z,28.35
2019-02-19T03:39:33.959Z,26.57
2019-02-19T03:40:38.149Z,28.45
2019-02-19T03:41:42.087Z,28.57
2019-02-19T03:42:46.029Z,28.67
2019-02-19T03:43:50.313Z,25.97
2019-02-19T03:44:54.880Z,28.25
2019-02-19T03:45:58.804Z,29.48
2019-02-19T03:47:03.021Z,28.23
2019-02-19T03:48:07.288Z,28.35
2019-02-19T03:49:11.589Z,27.73
2019-02-19T03:50:16.214Z,25.48
2019-02-19T03:51:20.413Z,29.15
2019-02-19T03:52:24.411Z,27.80
2019-02-19T03:53:28.823Z,23.42
2019-02-19T03:54:33.132Z,24.25
2019-02-19T03:55:37.851Z,23.92
2019-02-19T03:56:41.968Z,27.27
2019-02-19T03:57:46.086Z,28.60
2019-02-19T03:58:50.018Z,26.10
2019-02-19T03:59:54.101Z,26.73
2019-02-19T04:00:58.883Z,25.30
2019-02-19T04:02:03.225Z,26.62
2019-02-19T04:03:07.800Z,21.33
2019-02-19T04:04:12.088Z,22.40
2019-02-19T04:05:16.417Z,21.23
2019-02-19T04:06:20.418Z,26.02
2019-02-19T04:07:24.347Z,21.68
2019-02-19T04:08:28.277Z,26.80
2019-02-19T04:09:32.207Z,26.50
2019-02-19T04:10:36.461Z,28.10
2019-02-19T04:11:40.389Z,24.45
2019-02-19T04:12:44.647Z,24.30
2019-02-19T04:13:48.822Z,30.12
2019-02-19T04:14:52.995Z,26.62
2019-02-19T04:15:57.024Z,31.12
2019-02-19T04:17:01.267Z,33.58
2019-02-19T04:18:05.442Z,27.27
2019-02-19T04:19:09.619Z,30.43
2019-02-19T04:20:14.121Z,30.08
2019-02-19T04:21:18.400Z,28.52
2019-02-19T04:22:22.323Z,25.62
2019-02-19T04:23:26.423Z,26.05
2019-02-19T04:24:30.278Z,28.50
2019-02-19T04:25:34.396Z,26.85
2019-02-19T04:26:38.831Z,30.32
2019-02-19T04:27:43.078Z,33.65
2019-02-19T04:28:46.930Z,28.92
2019-02-19T04:29:51.032Z,28.47
2019-02-19T04:30:54.988Z,24.30
2019-02-19T04:31:58.835Z,29.37
2019-02-19T04:33:03.355Z,31.17
2019-02-19T04:34:07.571Z,26.87
2019-02-19T04:35:11.610Z,29.63
2019-02-19T04:36:15.912Z,29.05
2019-02-19T04:37:19.937Z,28.75
2019-02-19T04:38:23.973Z,27.52
2019-02-19T04:39:28.001Z,34.95
2019-02-19T04:40:32.413Z,38.33
2019-02-19T04:41:36.452Z,36.20
2019-02-19T04:42:40.481Z,41.53
2019-02-19T04:43:44.751Z,35.30
2019-02-19T04:44:48.709Z,46.18
2019-02-19T04:45:52.746Z,46.20
2019-02-19T04:46:56.791Z,60.20
2019-02-19T04:48:01.084Z,56.58
2019-02-19T04:49:05.648Z,42.58
2019-02-19T04:50:09.695Z,57.75
2019-02-19T04:51:14.249Z,65.32
2019-02-19T04:52:18.226Z,124.60
2019-02-19T04:53:22.241Z,121.40
2019-02-19T04:54:26.513Z,120.13
2019-02-19T04:55:30.550Z,133.55
2019-02-19T04:56:34.734Z,120.60
2019-02-19T04:57:38.679Z,122.17
2019-02-19T04:58:42.637Z,123.47
2019-02-19T04:59:46.658Z,80.38
2019-02-19T05:00:50.971Z,109.17
2019-02-19T05:01:54.938Z,96.80
2019-02-19T05:02:59.231Z,130.80
2019-02-19T05:04:03.536Z,69.80
2019-02-19T05:05:07.564Z,43.25
2019-02-19T05:06:11.520Z,40.28
2019-02-19T05:07:15.550Z,43.05
2019-02-19T05:08:19.912Z,45.48
2019-02-19T05:09:24.049Z,54.35
2019-02-19T05:10:28.258Z,63.42
2019-02-19T05:11:32.231Z,47.23
2019-02-19T05:12:36.165Z,43.45
2019-02-19T05:13:40.185Z,39.45
2019-02-19T05:14:44.060Z,39.80
2019-02-19T05:15:48.089Z,44.30
2019-02-19T05:16:52.363Z,39.33
2019-02-19T05:17:56.816Z,41.35
2019-02-19T05:19:00.709Z,36.68
2019-02-19T05:20:05.372Z,39.85
2019-02-19T05:21:09.695Z,35.58
2019-02-19T05:22:13.728Z,40.33
2019-02-19T05:23:18.113Z,41.00
2019-02-19T05:24:22.052Z,35.55
2019-02-19T05:25:26.100Z,37.53
2019-02-19T05:26:30.048Z,45.92
2019-02-19T05:27:34.429Z,34.40
2019-02-19T05:28:38.728Z,36.17
2019-02-19T05:29:42.771Z,33.15
2019-02-19T05:30:47.042Z,33.30
2019-02-19T05:31:51.070Z,35.63
2019-02-19T05:32:55.154Z,33.58
2019-02-19T05:33:59.204Z,32.53
2019-02-19T05:35:03.571Z,52.35
2019-02-19T05:36:09.125Z,38.38
2019-02-19T05:37:13.503Z,49.40
2019-02-19T05:38:17.404Z,35.15
2019-02-19T05:39:22.018Z,38.48
2019-02-19T05:40:26.321Z,46.50
2019-02-19T05:41:30.353Z,29.90
2019-02-19T05:42:35.249Z,33.98
2019-02-19T05:43:39.462Z,38.55
2019-02-19T05:44:43.833Z,21.35
2019-02-19T05:45:48.106Z,28.57
2019-02-19T05:46:52.374Z,35.40
2019-02-19T05:47:56.425Z,36.63
2019-02-19T05:49:00.762Z,30.90
2019-02-19T05:50:05.124Z,36.13
2019-02-19T05:51:09.148Z,40.28
2019-02-19T05:52:13.231Z,41.90
2019-02-19T05:53:17.252Z,38.78
2019-02-19T05:54:21.267Z,37.83
2019-02-19T05:55:25.662Z,39.18
2019-02-19T05:56:30.268Z,37.35
2019-02-19T05:57:34.304Z,40.80
2019-02-19T05:58:38.414Z,34.33
2019-02-19T05:59:42.417Z,39.83
2019-02-19T06:00:46.609Z,38.55
2019-02-19T06:01:50.523Z,40.38
2019-02-19T06:02:54.694Z,43.28
2019-02-19T06:03:58.713Z,43.65
2019-02-19T06:05:02.890Z,45.08
2019-02-19T06:06:06.893Z,42.53
2019-02-19T06:07:11.016Z,36.63
2019-02-19T06:08:15.443Z,41.73
2019-02-19T06:09:19.460Z,40.17
2019-02-19T06:10:23.892Z,35.10
2019-02-19T06:11:27.814Z,34.43
2019-02-19T06:12:31.915Z,42.35
2019-02-19T06:13:36.040Z,31.15
2019-02-19T06:14:40.276Z,44.20
2019-02-19T06:15:44.276Z,38.17
2019-02-19T06:16:48.528Z,27.07
2019-02-19T06:17:52.737Z,36.35
2019-02-19T06:18:56.700Z,38.60
2019-02-19T06:20:00.890Z,37.88
2019-02-19T06:21:05.134Z,39.80
2019-02-19T06:22:09.311Z,41.83
2019-02-19T06:23:13.754Z,45.15
2019-02-19T06:24:17.968Z,48.60
2019-02-19T06:25:21.891Z,47.33
2019-02-19T06:26:25.830Z,45.35
2019-02-19T06:27:30.098Z,44.50
2019-02-19T06:28:34.160Z,43.45
2019-02-19T06:29:38.961Z,43.28
2019-02-19T06:30:42.881Z,46.20
2019-02-19T06:31:55.193Z,43.70
2019-02-19T06:32:53.394Z,39.98
2019-02-19T06:33:57.338Z,40.38
2019-02-19T06:35:01.558Z,44.73
2019-02-19T06:36:05.838Z,44.05
2019-02-19T06:37:10.003Z,45.88
2019-02-19T06:38:13.947Z,42.60
2019-02-19T06:39:18.579Z,45.10
2019-02-19T06:40:27.437Z,46.45
2019-02-19T06:41:31.442Z,41.42
2019-02-19T06:42:35.450Z,44.08
2019-02-19T06:43:39.531Z,45.23
2019-02-19T06:44:43.785Z,49.93
2019-02-19T06:45:47.716Z,45.20
2019-02-19T06:46:51.991Z,45.98
2019-02-19T06:47:55.995Z,45.48
2019-02-19T06:49:00.094Z,51.05
2019-02-19T06:50:04.406Z,46.13
2019-02-19T06:51:08.336Z,45.33
2019-02-19T06:52:12.261Z,47.25
2019-02-19T06:53:16.435Z,35.60
2019-02-19T06:54:20.955Z,43.10
2019-02-19T06:55:25.202Z,35.95
2019-02-19T06:56:29.551Z,17.30
2019-02-19T06:57:33.722Z,40.43
2019-02-19T06:58:37.899Z,39.95
2019-02-19T06:59:42.114Z,39.90
2019-02-19T07:00:46.223Z,31.10
2019-02-19T07:02:14.486Z,34.65
2019-02-19T07:03:23.454Z,43.40
2019-02-19T07:04:34.707Z,47.03
2019-02-19T07:05:38.706Z,33.38
2019-02-19T07:06:42.633Z,37.10
2019-02-19T07:07:46.917Z,43.73
2019-02-19T07:08:50.849Z,50.98
2019-02-19T07:09:54.864Z,50.20
2019-02-19T07:10:59.201Z,38.55
2019-02-19T07:12:03.138Z,45.25
2019-02-19T07:13:07.450Z,43.33
2019-02-19T07:14:11.453Z,47.83
2019-02-19T07:15:15.710Z,44.70
2019-02-19T07:16:19.916Z,45.55
2019-02-19T07:17:23.766Z,46.18
2019-02-19T07:18:27.694Z,43.45
2019-02-19T07:19:31.955Z,43.65
2019-02-19T07:20:35.936Z,53.02
2019-02-19T07:21:39.989Z,54.30
2019-02-19T07:22:43.988Z,52.05
2019-02-19T07:23:48.366Z,51.42
2019-02-19T07:24:52.679Z,49.40
2019-02-19T07:25:56.762Z,43.20
2019-02-19T07:27:00.702Z,48.23
2019-02-19T07:28:04.751Z,57.80
2019-02-19T07:29:08.606Z,52.58
2019-02-19T07:30:12.739Z,56.53
2019-02-19T07:31:17.055Z,47.27
2019-02-19T07:32:21.209Z,47.13
2019-02-19T07:33:27.362Z,61.35
2019-02-19T07:34:31.651Z,60.70
2019-02-19T07:35:35.855Z,67.45
2019-02-19T07:36:39.982Z,60.90
2019-02-19T07:37:44.374Z,43.95
2019-02-19T07:38:48.678Z,47.17
2019-02-19T07:39:52.618Z,48.98
2019-02-19T07:40:56.732Z,56.00
2019-02-19T07:42:01.091Z,65.15
2019-02-19T07:43:05.102Z,83.80
2019-02-19T07:44:09.039Z,93.87
2019-02-19T07:45:13.410Z,80.80
2019-02-19T07:46:19.220Z,70.45
2019-02-19T07:47:24.858Z,73.07
2019-02-19T07:48:29.457Z,82.67
2019-02-19T07:49:33.603Z,79.55
2019-02-19T07:50:37.555Z,85.72
2019-02-19T07:51:42.731Z,72.55
2019-02-19T07:52:47.243Z,72.25
2019-02-19T07:53:51.133Z,74.85
2019-02-19T07:54:58.249Z,72.05
2019-02-19T07:56:02.681Z,68.45
2019-02-19T07:57:07.000Z,73.65
2019-02-19T07:58:11.184Z,67.05
2019-02-19T07:59:15.415Z,64.77
2019-02-19T08:00:20.369Z,64.07
2019-02-19T08:01:24.645Z,64.35
2019-02-19T08:02:28.578Z,66.95
2019-02-19T08:03:32.883Z,63.45
2019-02-19T08:04:36.816Z,60.33
2019-02-19T08:05:41.003Z,56.48
2019-02-19T08:06:44.953Z,63.45
2019-02-19T08:07:48.884Z,51.00
2019-02-19T08:08:53.079Z,51.10
2019-02-19T08:09:56.929Z,48.65
2019-02-19T08:11:01.121Z,53.75
2019-02-19T08:12:05.366Z,52.50
2019-02-19T08:13:09.796Z,49.23
2019-02-19T08:14:13.912Z,35.10
2019-02-19T08:15:17.908Z,33.05
2019-02-19T08:16:21.842Z,45.85
2019-02-19T08:17:33.077Z,47.05
2019-02-19T08:18:31.942Z,57.27
2019-02-19T08:19:36.039Z,54.53
2019-02-19T08:20:39.962Z,55.40
2019-02-19T08:21:43.979Z,48.35
2019-02-19T08:22:48.229Z,53.23
2019-02-19T08:23:52.335Z,51.42
2019-02-19T08:24:56.269Z,52.30
2019-02-19T08:26:00.490Z,44.27
2019-02-19T08:27:04.753Z,48.23
2019-02-19T08:28:08.998Z,51.75
2019-02-19T08:29:14.044Z,41.08
2019-02-19T08:30:18.155Z,58.10
2019-02-19T08:31:22.495Z,49.93
2019-02-19T08:32:27.064Z,48.78
2019-02-19T08:33:31.195Z,47.58
2019-02-19T08:34:35.126Z,44.85
2019-02-19T08:35:39.573Z,52.35
2019-02-19T08:36:45.386Z,53.10
2019-02-19T08:37:49.773Z,63.85
2019-02-19T08:38:53.878Z,60.65
2019-02-19T08:39:57.978Z,54.40
2019-02-19T08:41:02.241Z,59.35
2019-02-19T08:42:06.851Z,56.10
2019-02-19T08:43:11.364Z,67.75
2019-02-19T08:44:16.091Z,64.17
2019-02-19T08:45:20.135Z,65.97
2019-02-19T08:46:24.802Z,64.85
2019-02-19T08:47:29.010Z,74.30
2019-02-19T08:48:33.142Z,74.32
2019-02-19T08:49:37.416Z,74.80
2019-02-19T08:50:41.693Z,72.25
2019-02-19T08:51:45.579Z,70.22
2019-02-19T08:52:49.950Z,62.62
2019-02-19T08:53:54.242Z,74.27
2019-02-19T08:54:58.103Z,75.52
2019-02-19T08:56:02.398Z,86.30
2019-02-19T08:57:06.695Z,91.60
2019-02-19T08:58:10.702Z,93.85
2019-02-19T08:59:14.659Z,101.95
2019-02-19T09:00:18.843Z,98.85
2019-02-19T09:01:22.854Z,100.33
2019-02-19T09:02:27.295Z,103.80
2019-02-19T09:03:31.499Z,102.55
2019-02-19T09:04:36.255Z,113.77
2019-02-19T09:05:40.288Z,112.85
2019-02-19T09:06:44.624Z,114.03
2019-02-19T09:07:48.490Z,112.97
2019-02-19T09:08:52.969Z,117.50
2019-02-19T09:09:56.827Z,121.17
2019-02-19T09:11:01.026Z,134.80
2019-02-19T09:12:04.984Z,118.30
2019-02-19T09:13:09.235Z,118.77
2019-02-19T09:14:13.178Z,123.25
2019-02-19T09:15:17.364Z,116.67
2019-02-19T09:16:21.641Z,135.72
2019-02-19T09:17:25.666Z,125.40
2019-02-19T09:18:30.008Z,123.22
2019-02-19T09:19:33.946Z,126.78
2019-02-19T09:20:37.881Z,127.58
2019-02-19T09:21:42.461Z,123.58
2019-02-19T09:22:46.416Z,112.70
2019-02-19T09:23:50.440Z,111.72
2019-02-19T09:24:55.379Z,109.25
2019-02-19T09:26:00.019Z,109.30
2019-02-19T09:27:04.036Z,101.82
2019-02-19T09:28:08.326Z,91.67
2019-02-19T09:29:12.619Z,91.42
2019-02-19T09:30:16.636Z,96.35
2019-02-19T09:31:21.256Z,93.87
2019-02-19T09:32:25.421Z,88.52
2019-02-19T09:33:29.367Z,82.45
2019-02-19T09:34:33.298Z,79.45
2019-02-19T09:35:37.227Z,78.60
2019-02-19T09:36:41.153Z,81.85
2019-02-19T09:37:45.343Z,79.45
2019-02-19T09:38:50.123Z,77.70
2019-02-19T09:39:54.231Z,68.52
2019-02-19T09:40:58.331Z,74.20
2019-02-19T09:42:11.520Z,76.77
2019-02-19T09:43:15.767Z,74.55
2019-02-19T09:44:19.784Z,68.87
2019-02-19T09:45:23.711Z,72.70
2019-02-19T09:46:27.954Z,68.40
2019-02-19T09:47:32.130Z,88.47
2019-02-19T09:48:36.314Z,93.55
2019-02-19T09:49:40.250Z,87.20
2019-02-19T09:50:44.250Z,90.77
2019-02-19T09:51:48.195Z,113.62
2019-02-19T09:52:59.735Z,105.47
2019-02-19T09:53:58.035Z,88.37
2019-02-19T09:55:01.976Z,77.78
2019-02-19T09:56:05.982Z,76.28
2019-02-19T09:57:10.244Z,78.02
2019-02-19T09:58:14.160Z,72.82
2019-02-19T09:59:18.343Z,74.32
2019-02-19T10:00:22.276Z,71.17
2019-02-19T10:01:28.201Z,68.22
2019-02-19T10:02:32.009Z,71.95
2019-02-19T10:03:35.951Z,64.75
2019-02-19T10:04:39.883Z,66.62
2019-02-19T10:05:44.072Z,60.67
2019-02-19T10:06:48.075Z,63.33
2019-02-19T10:07:52.078Z,58.13
2019-02-19T10:08:56.095Z,56.75
2019-02-19T10:10:00.352Z,60.30
2019-02-19T10:11:04.328Z,56.90
2019-02-19T10:12:08.542Z,58.55
2019-02-19T10:13:12.553Z,53.05
2019-02-19T10:14:16.426Z,54.45
2019-02-19T10:15:20.749Z,56.40
2019-02-19T10:16:24.941Z,60.70
2019-02-19T10:17:29.136Z,57.73
2019-02-19T10:18:33.137Z,46.18
2019-02-19T10:19:37.449Z,47.25
2019-02-19T10:20:41.865Z,50.40
2019-02-19T10:21:46.091Z,60.63
2019-02-19T10:22:50.019Z,43.75
2019-02-19T10:23:54.296Z,43.35
2019-02-19T10:24:58.504Z,39.10
2019-02-19T10:26:02.527Z,43.02
2019-02-19T10:27:06.503Z,44.80
2019-02-19T10:28:10.639Z,51.60
2019-02-19T10:29:14.923Z,49.08
2019-02-19T10:30:19.026Z,46.95
2019-02-19T10:31:23.613Z,35.48
2019-02-19T10:32:28.126Z,21.97
2019-02-19T10:33:32.197Z,21.55
2019-02-19T10:34:36.061Z,17.40
2019-02-19T10:35:40.334Z,17.32
2019-02-19T10:36:44.846Z,15.88
2019-02-19T10:37:49.022Z,16.45
2019-02-19T10:38:52.965Z,21.37
2019-02-19T10:39:56.910Z,30.80
2019-02-19T10:41:01.464Z,28.27
2019-02-19T10:42:05.720Z,31.90
2019-02-19T10:43:09.642Z,30.68
2019-02-19T10:44:13.522Z,31.37
2019-02-19T10:45:18.207Z,37.20
2019-02-19T10:46:22.205Z,30.60
2019-02-19T10:47:26.212Z,24.95
2019-02-19T10:48:30.726Z,22.95
2019-02-19T10:49:34.920Z,23.30
2019-02-19T10:50:39.023Z,17.65
2019-02-19T10:51:43.126Z,13.50
2019-02-19T10:52:47.296Z,17.92
2019-02-19T10:53:51.218Z,15.75
2019-02-19T10:54:55.080Z,19.48
2019-02-19T10:55:59.371Z,17.07
2019-02-19T10:57:03.383Z,14.70
2019-02-19T10:58:07.620Z,19.32
2019-02-19T10:59:11.758Z,16.42
2019-02-19T11:00:17.889Z,17.75
2019-02-19T11:01:21.918Z,17.73
2019-02-19T11:02:25.926Z,12.75
2019-02-19T11:03:29.940Z,15.65
2019-02-19T11:04:34.202Z,13.70
2019-02-19T11:05:38.394Z,13.45
2019-02-19T11:06:42.323Z,15.43
2019-02-19T11:07:46.586Z,19.55
2019-02-19T11:08:50.839Z,16.42
2019-02-19T11:09:54.836Z,17.30
2019-02-19T11:10:59.106Z,19.42
2019-02-19T11:12:03.118Z,18.35
2019-02-19T11:13:07.319Z,16.80
2019-02-19T11:14:11.486Z,33.98
2019-02-19T11:15:17.430Z,26.57
2019-02-19T11:16:21.557Z,31.05
2019-02-19T11:17:25.806Z,18.95
2019-02-19T11:18:30.019Z,21.62
2019-02-19T11:19:33.972Z,21.52
2019-02-19T11:20:37.990Z,18.12
2019-02-19T11:21:42.438Z,25.32
2019-02-19T11:22:47.132Z,21.30
2019-02-19T11:23:51.263Z,20.80
2019-02-19T11:24:55.627Z,18.45
2019-02-19T11:25:59.862Z,15.95
2019-02-19T11:27:03.878Z,19.00
2019-02-19T11:28:07.814Z,24.45
2019-02-19T11:29:12.085Z,21.37
2019-02-19T11:30:16.609Z,20.05
2019-02-19T11:31:20.551Z,22.32
2019-02-19T11:32:26.288Z,22.25
2019-02-19T11:33:30.819Z,20.90
2019-02-19T11:34:35.084Z,23.02
2019-02-19T11:35:39.189Z,18.17
2019-02-19T11:36:44.050Z,19.62
2019-02-19T11:37:48.000Z,21.95
2019-02-19T11:38:52.179Z,23.40
2019-02-19T11:39:56.463Z,20.92
2019-02-19T11:41:00.336Z,20.05
2019-02-19T11:42:04.925Z,18.90
2019-02-19T11:43:09.184Z,19.12
2019-02-19T11:44:13.391Z,21.90
2019-02-19T11:45:17.537Z,21.25
2019-02-19T11:46:21.748Z,14.75
2019-02-19T11:47:26.747Z,17.12
2019-02-19T11:48:36.906Z,20.25
2019-02-19T11:49:37.289Z,24.77
2019-02-19T11:50:42.229Z,16.57
2019-02-19T11:51:46.175Z,19.12
2019-02-19T11:52:50.352Z,16.90
2019-02-19T11:53:54.527Z,19.65
2019-02-19T11:54:58.384Z,17.10
2019-02-19T11:56:02.608Z,21.12
2019-02-19T11:57:06.608Z,19.70
2019-02-19T11:58:10.846Z,23.67
2019-02-19T11:59:14.846Z,23.50
2019-02-19T12:00:22.286Z,17.32
2019-02-19T12:01:26.587Z,20.48
2019-02-19T12:02:33.013Z,22.25
2019-02-19T12:03:36.541Z,21.52
2019-02-19T12:04:41.039Z,18.70
2019-02-19T12:05:45.289Z,21.27
2019-02-19T12:06:49.977Z,22.82
2019-02-19T12:07:53.993Z,18.15
2019-02-19T12:08:58.100Z,17.35
2019-02-19T12:10:02.483Z,20.25
2019-02-19T12:11:06.701Z,18.82
2019-02-19T12:12:10.987Z,23.60
2019-02-19T12:13:14.945Z,23.47
2019-02-19T12:14:18.805Z,18.00
2019-02-19T12:15:22.932Z,22.15
2019-02-19T12:16:27.227Z,19.90
2019-02-19T12:17:31.231Z,20.45
2019-02-19T12:18:35.096Z,18.77
2019-02-19T12:19:39.732Z,23.05
2019-02-19T12:20:44.003Z,20.25
2019-02-19T12:21:47.951Z,18.57
2019-02-19T12:22:52.232Z,20.25
2019-02-19T12:23:56.215Z,20.15
2019-02-19T12:25:00.290Z,22.02
2019-02-19T12:26:04.570Z,23.02
2019-02-19T12:27:09.013Z,20.75
2019-02-19T12:28:13.291Z,37.42
2019-02-19T12:29:17.591Z,26.30
2019-02-19T12:30:21.644Z,33.35
2019-02-19T12:31:25.547Z,22.80
2019-02-19T12:32:30.235Z,20.72
2019-02-19T12:33:34.499Z,19.85
2019-02-19T12:34:38.841Z,21.73
2019-02-19T12:35:42.886Z,19.95
2019-02-19T12:36:47.352Z,35.98
2019-02-19T12:37:51.560Z,37.70
2019-02-19T12:38:55.513Z,35.83
2019-02-19T12:39:59.586Z,28.92
2019-02-19T12:41:04.026Z,29.35
2019-02-19T12:42:08.384Z,26.20
2019-02-19T12:43:12.667Z,29.30
2019-02-19T12:44:16.608Z,25.68
2019-02-19T12:45:20.608Z,25.43
2019-02-19T12:46:24.633Z,24.80
2019-02-19T12:47:28.747Z,28.95
2019-02-19T12:48:33.087Z,29.20
2019-02-19T12:49:37.027Z,27.20
2019-02-19T12:50:41.033Z,28.42
2019-02-19T12:51:45.027Z,25.17
2019-02-19T12:52:49.419Z,23.77
2019-02-19T12:53:53.824Z,24.95
2019-02-19T12:54:57.764Z,22.22
2019-02-19T12:56:01.815Z,20.68
2019-02-19T12:57:06.134Z,20.48
2019-02-19T12:58:10.444Z,16.32
2019-02-19T12:59:17.206Z,20.48
2019-02-19T13:00:21.217Z,19.55
2019-02-19T13:01:28.498Z,22.62
2019-02-19T13:02:32.694Z,20.05
2019-02-19T13:03:36.765Z,17.98
2019-02-19T13:04:40.945Z,18.10
2019-02-19T13:05:44.938Z,15.85
2019-02-19T13:06:49.231Z,14.75
2019-02-19T13:07:53.624Z,18.40
2019-02-19T13:08:57.570Z,19.60
2019-02-19T13:10:01.784Z,19.15
2019-02-19T13:11:05.800Z,20.70
2019-02-19T13:12:10.740Z,18.07
2019-02-19T13:13:14.745Z,17.95
2019-02-19T13:14:19.059Z,16.40
2019-02-19T13:15:23.364Z,14.20
2019-02-19T13:16:27.503Z,16.32
2019-02-19T13:17:31.714Z,15.68
2019-02-19T13:18:35.730Z,14.70
2019-02-19T13:19:39.831Z,17.25
2019-02-19T13:20:43.830Z,14.45
2019-02-19T13:21:48.019Z,12.80
2019-02-19T13:22:51.951Z,12.00
2019-02-19T13:23:56.138Z,13.00
2019-02-19T13:24:59.996Z,13.05
2019-02-19T13:26:03.928Z,14.35
2019-02-19T13:27:07.950Z,12.03
2019-02-19T13:28:11.893Z,14.98
2019-02-19T13:29:15.898Z,14.83
2019-02-19T13:30:19.932Z,9.18
2019-02-19T13:31:23.928Z,9.68
2019-02-19T13:32:27.928Z,10.75
2019-02-19T13:33:31.875Z,10.05
2019-02-19T13:34:35.799Z,8.75
2019-02-19T13:35:40.047Z,10.08
2019-02-19T13:36:44.047Z,10.40
2019-02-19T13:37:48.231Z,9.63
2019-02-19T13:38:52.174Z,9.00
2019-02-19T13:39:56.184Z,13.50
2019-02-19T13:41:00.177Z,9.93
2019-02-19T13:42:04.104Z,7.85
2019-02-19T13:43:08.350Z,8.83
2019-02-19T13:44:12.642Z,8.33
2019-02-19T13:45:16.662Z,11.57
2019-02-19T13:46:20.622Z,9.00
2019-02-19T13:47:24.567Z,8.90